createdAt,value
2023-01-30T00:02:02.424Z,1.96
2023-01-30T00:04:30.322Z,2.09
2023-01-30T00:06:56.894Z,2.09
2023-01-30T00:09:23.411Z,2.15
2023-01-30T00:11:50.022Z,2.22
2023-01-30T00:14:16.701Z,2.18
2023-01-30T00:16:43.328Z,2.19
2023-01-30T00:19:10.089Z,2.15
2023-01-30T00:21:38.112Z,2.14
2023-01-30T00:24:05.078Z,1.95
2023-01-30T00:26:31.697Z,2.13
2023-01-30T00:28:58.458Z,2.18
2023-01-30T00:31:25.142Z,2.15
2023-01-30T00:33:51.886Z,2.10
2023-01-30T00:36:18.561Z,2.04
2023-01-30T00:38:46.437Z,2.21
2023-01-30T00:41:13.069Z,2.25
2023-01-30T00:43:41.686Z,2.30
2023-01-30T00:46:15.344Z,2.35
2023-01-30T00:48:42.269Z,2.37
2023-01-30T00:51:08.928Z,2.43
2023-01-30T00:53:35.753Z,2.41
2023-01-30T00:56:04.507Z,2.24
2023-01-30T00:58:31.256Z,2.47
2023-01-30T01:00:57.762Z,2.33
2023-01-30T01:03:24.706Z,2.48
2023-01-30T01:05:51.336Z,2.40
2023-01-30T01:08:17.962Z,2.50
2023-01-30T01:10:44.531Z,2.55
2023-01-30T01:13:12.466Z,2.30
2023-01-30T01:15:39.185Z,2.57
2023-01-30T01:18:06.548Z,2.60
2023-01-30T01:20:33.165Z,2.59
2023-01-30T01:22:59.704Z,2.59
2023-01-30T01:25:26.401Z,2.71
2023-01-30T01:27:54.409Z,2.70
2023-01-30T01:30:22.683Z,2.76
2023-01-30T01:32:49.323Z,2.72
2023-01-30T01:35:16.263Z,2.77
2023-01-30T01:37:43.142Z,2.74
2023-01-30T01:40:17.444Z,2.78
2023-01-30T01:42:44.266Z,2.82
2023-01-30T01:45:17.907Z,2.83
2023-01-30T01:47:52.216Z,2.83
2023-01-30T01:50:25.052Z,2.84
2023-01-30T01:52:54.156Z,2.84
2023-01-30T01:55:23.045Z,2.84
2023-01-30T01:57:53.846Z,2.90
2023-01-30T02:00:22.087Z,2.90
2023-01-30T02:02:56.069Z,2.90
2023-01-30T02:05:24.531Z,2.94
2023-01-30T02:07:55.364Z,2.95
2023-01-30T02:10:34.024Z,2.87
2023-01-30T02:13:00.637Z,3.03
2023-01-30T02:15:27.152Z,2.98
2023-01-30T02:17:56.231Z,3.00
2023-01-30T02:20:31.424Z,3.13
2023-01-30T02:23:21.144Z,3.10
2023-01-30T02:26:09.982Z,2.89
2023-01-30T02:28:55.649Z,3.08
2023-01-30T02:31:36.191Z,3.13
2023-01-30T02:34:26.502Z,3.03
2023-01-30T02:37:04.276Z,3.13
2023-01-30T02:39:44.626Z,3.14
2023-01-30T02:42:22.804Z,3.22
2023-01-30T02:44:59.199Z,3.26
2023-01-30T02:47:34.409Z,3.27
2023-01-30T02:50:07.408Z,3.22
2023-01-30T02:52:35.309Z,3.21
2023-01-30T02:55:08.555Z,3.29
2023-01-30T02:57:35.337Z,3.08
2023-01-30T03:00:04.961Z,3.25
2023-01-30T03:02:59.178Z,3.22
2023-01-30T03:05:37.865Z,3.29
2023-01-30T03:08:19.945Z,3.29
2023-01-30T03:10:58.369Z,3.32
2023-01-30T03:13:34.541Z,3.24
2023-01-30T03:16:06.453Z,3.35
2023-01-30T03:18:34.790Z,3.33
2023-01-30T03:21:05.171Z,3.33
2023-01-30T03:23:32.186Z,3.36
2023-01-30T03:26:00.141Z,3.23
2023-01-30T03:28:28.319Z,3.36
2023-01-30T03:30:54.936Z,3.36
2023-01-30T03:33:21.654Z,3.37
2023-01-30T03:35:51.200Z,3.38
2023-01-30T03:38:18.256Z,3.22
2023-01-30T03:40:46.617Z,3.31
2023-01-30T03:43:13.247Z,3.37
2023-01-30T03:45:39.849Z,3.38
2023-01-30T03:48:07.133Z,3.42
2023-01-30T03:50:34.060Z,3.49
2023-01-30T03:53:02.470Z,3.43
2023-01-30T03:55:29.641Z,3.37
2023-01-30T03:57:56.929Z,3.38
2023-01-30T04:00:25.612Z,3.34
2023-01-30T04:02:52.348Z,3.44
2023-01-30T04:05:20.270Z,3.41
2023-01-30T04:07:51.907Z,3.34
2023-01-30T04:10:20.359Z,3.32
2023-01-30T04:12:47.504Z,3.25
2023-01-30T04:15:14.373Z,3.37
2023-01-30T04:17:52.983Z,3.24
2023-01-30T04:20:31.478Z,3.30
2023-01-30T04:22:58.232Z,3.30
2023-01-30T04:25:28.003Z,3.30
2023-01-30T04:27:55.598Z,3.16
2023-01-30T04:30:26.904Z,3.31
2023-01-30T04:33:03.529Z,3.33
2023-01-30T04:35:30.341Z,3.24
2023-01-30T04:37:56.922Z,3.34
2023-01-30T04:40:23.521Z,3.30
2023-01-30T04:42:51.475Z,3.36
2023-01-30T04:45:48.761Z,3.33
2023-01-30T04:48:16.677Z,3.34
2023-01-30T04:50:47.643Z,3.39
2023-01-30T04:53:15.094Z,3.09
2023-01-30T04:55:42.062Z,3.18
2023-01-30T04:58:10.354Z,3.28
2023-01-30T05:00:37.359Z,3.33
2023-01-30T05:03:04.428Z,3.39
2023-01-30T05:05:30.986Z,3.33
2023-01-30T05:07:57.673Z,3.32
2023-01-30T05:10:24.493Z,3.29
2023-01-30T05:12:51.337Z,3.24
2023-01-30T05:15:19.545Z,3.38
2023-01-30T05:17:46.446Z,3.28
2023-01-30T05:20:13.948Z,3.41
2023-01-30T05:22:40.646Z,3.56
2023-01-30T05:25:08.332Z,3.62
2023-01-30T05:27:35.069Z,3.83
2023-01-30T05:30:01.719Z,3.78
2023-01-30T05:32:29.827Z,4.06
2023-01-30T05:34:56.446Z,4.02
2023-01-30T05:37:23.058Z,4.24
2023-01-30T05:39:49.597Z,4.33
2023-01-30T05:42:16.401Z,4.42
2023-01-30T05:44:42.940Z,4.46
2023-01-30T05:47:09.535Z,4.54
2023-01-30T05:49:37.401Z,4.58
2023-01-30T05:52:04.342Z,4.59
2023-01-30T05:54:31.015Z,4.59
2023-01-30T05:56:57.659Z,4.43
2023-01-30T05:59:24.201Z,4.66
2023-01-30T06:01:50.791Z,4.76
2023-01-30T06:04:17.327Z,4.77
2023-01-30T06:06:45.244Z,4.82
2023-01-30T06:09:11.751Z,4.81
2023-01-30T06:11:38.360Z,4.78
2023-01-30T06:14:04.891Z,4.83
2023-01-30T06:16:31.584Z,4.90
2023-01-30T06:18:58.157Z,4.88
2023-01-30T06:21:24.738Z,4.78
2023-01-30T06:23:53.320Z,4.86
2023-01-30T06:26:19.969Z,4.85
2023-01-30T06:28:46.579Z,4.93
2023-01-30T06:31:13.389Z,4.94
2023-01-30T06:33:40.271Z,4.91
2023-01-30T06:36:07.738Z,4.89
2023-01-30T06:38:34.290Z,4.92
2023-01-30T06:41:02.280Z,4.88
2023-01-30T06:43:28.867Z,4.92
2023-01-30T06:45:55.552Z,4.87
2023-01-30T06:48:22.142Z,4.97
2023-01-30T06:50:49.183Z,4.95
2023-01-30T06:53:15.726Z,4.85
2023-01-30T06:55:42.331Z,4.98
2023-01-30T06:58:12.140Z,4.78
2023-01-30T07:00:40.242Z,5.04
2023-01-30T07:03:10.619Z,5.03
2023-01-30T07:05:37.598Z,5.03
2023-01-30T07:08:04.160Z,5.10
2023-01-30T07:10:30.822Z,4.90
2023-01-30T07:12:57.359Z,5.21
2023-01-30T07:15:25.635Z,5.20
2023-01-30T07:17:52.196Z,5.09
2023-01-30T07:20:19.073Z,5.27
2023-01-30T07:22:50.442Z,5.20
2023-01-30T07:25:17.388Z,5.22
2023-01-30T07:27:49.481Z,5.24
2023-01-30T07:30:16.208Z,5.21
2023-01-30T07:32:44.063Z,5.15
2023-01-30T07:35:10.691Z,5.08
2023-01-30T07:37:37.265Z,5.08
2023-01-30T07:40:04.638Z,5.29
2023-01-30T07:42:31.322Z,5.37
2023-01-30T07:44:57.929Z,5.39
2023-01-30T07:47:24.434Z,5.44
2023-01-30T07:49:52.409Z,5.42
2023-01-30T07:52:18.962Z,5.38
2023-01-30T07:54:45.579Z,5.47
2023-01-30T07:57:12.121Z,5.48
2023-01-30T07:59:38.725Z,5.53
2023-01-30T08:02:06.485Z,5.48
2023-01-30T08:04:33.267Z,5.48
2023-01-30T08:07:01.211Z,5.54
2023-01-30T08:09:27.908Z,5.55
2023-01-30T08:11:54.435Z,5.62
2023-01-30T08:14:20.995Z,5.70
2023-01-30T08:16:47.543Z,5.64
2023-01-30T08:19:14.148Z,5.60
2023-01-30T08:21:40.677Z,5.59
2023-01-30T08:24:09.058Z,5.57
2023-01-30T08:26:35.635Z,5.62
2023-01-30T08:29:02.287Z,5.63
2023-01-30T08:31:28.900Z,5.58
2023-01-30T08:33:55.542Z,5.62
2023-01-30T08:36:22.069Z,5.65
2023-01-30T08:38:48.639Z,5.51
2023-01-30T08:41:16.562Z,5.67
2023-01-30T08:43:43.168Z,5.73
2023-01-30T08:46:09.904Z,5.73
2023-01-30T08:48:47.651Z,5.67
2023-01-30T08:51:15.931Z,5.66
2023-01-30T08:53:42.528Z,5.80
2023-01-30T08:56:09.179Z,5.86
2023-01-30T08:58:37.066Z,5.90
2023-01-30T09:01:06.033Z,5.87
2023-01-30T09:03:32.605Z,5.79
2023-01-30T09:05:59.273Z,5.95
2023-01-30T09:08:25.834Z,5.66
2023-01-30T09:10:52.444Z,6.01
2023-01-30T09:13:19.154Z,6.07
2023-01-30T09:15:47.181Z,5.96
2023-01-30T09:18:13.842Z,6.17
2023-01-30T09:20:40.491Z,6.24
2023-01-30T09:23:07.313Z,6.32
2023-01-30T09:25:34.093Z,6.22
2023-01-30T09:28:00.673Z,6.51
2023-01-30T09:30:27.498Z,6.55
2023-01-30T09:32:55.510Z,6.68
2023-01-30T09:35:22.138Z,6.68
2023-01-30T09:37:49.478Z,6.71
2023-01-30T09:40:18.655Z,6.80
2023-01-30T09:43:04.032Z,6.80
2023-01-30T09:45:46.484Z,6.90
2023-01-30T09:48:20.496Z,6.84
2023-01-30T09:51:03.584Z,6.92
2023-01-30T09:53:38.992Z,6.94
2023-01-30T09:56:05.983Z,6.94
2023-01-30T09:58:42.212Z,6.98
2023-01-30T10:01:17.178Z,7.16
2023-01-30T10:03:58.277Z,7.10
2023-01-30T10:06:24.885Z,6.62
2023-01-30T10:09:01.515Z,7.42
2023-01-30T10:11:39.000Z,7.45
2023-01-30T10:14:21.750Z,7.44
2023-01-30T10:17:00.958Z,7.61
2023-01-30T10:19:55.393Z,7.48
2023-01-30T10:22:37.204Z,7.40
2023-01-30T10:25:20.503Z,7.51
2023-01-30T10:27:51.887Z,7.41
2023-01-30T10:30:19.500Z,7.43
2023-01-30T10:32:50.499Z,7.40
2023-01-30T10:35:22.861Z,7.52
2023-01-30T10:37:59.015Z,7.41
2023-01-30T10:40:33.690Z,7.05
2023-01-30T10:43:09.275Z,7.37
2023-01-30T10:45:43.878Z,7.47
2023-01-30T10:48:43.016Z,7.48
2023-01-30T10:51:22.824Z,7.71
2023-01-30T10:53:55.304Z,7.67
2023-01-30T10:56:30.275Z,7.56
2023-01-30T10:59:05.289Z,7.46
2023-01-30T11:01:38.146Z,7.54
2023-01-30T11:04:19.294Z,7.25
2023-01-30T11:06:48.117Z,7.74
2023-01-30T11:09:14.632Z,7.42
2023-01-30T11:11:48.956Z,7.67
2023-01-30T11:14:15.682Z,7.69
2023-01-30T11:16:46.226Z,7.67
2023-01-30T11:19:22.432Z,7.53
2023-01-30T11:21:53.449Z,7.57
2023-01-30T11:24:22.463Z,7.66
2023-01-30T11:26:49.638Z,7.53
2023-01-30T11:29:25.979Z,7.39
2023-01-30T11:31:53.801Z,7.57
2023-01-30T11:34:22.453Z,7.51
2023-01-30T11:36:51.241Z,7.50
2023-01-30T11:39:23.841Z,7.38
2023-01-30T11:41:59.560Z,7.41
2023-01-30T11:44:27.645Z,7.38
2023-01-30T11:46:54.578Z,7.17
2023-01-30T11:49:46.817Z,7.32
2023-01-30T11:52:10.923Z,7.39
2023-01-30T11:54:39.655Z,7.40
2023-01-30T11:57:11.762Z,7.45
2023-01-30T11:59:43.717Z,7.49
2023-01-30T12:02:15.552Z,7.37
2023-01-30T12:04:44.503Z,7.32
2023-01-30T12:07:20.541Z,7.40
2023-01-30T12:09:47.357Z,7.22
2023-01-30T12:12:27.794Z,7.40
2023-01-30T12:15:03.238Z,7.10
2023-01-30T12:17:39.387Z,7.31
2023-01-30T12:20:17.866Z,7.45
2023-01-30T12:23:05.058Z,7.44
2023-01-30T12:25:38.982Z,6.86
2023-01-30T12:28:14.124Z,7.30
2023-01-30T12:30:47.416Z,7.29
2023-01-30T12:33:15.262Z,7.30
2023-01-30T12:35:53.055Z,7.22
2023-01-30T12:38:41.513Z,7.28
2023-01-30T12:41:23.551Z,7.07
2023-01-30T12:43:59.761Z,7.27
2023-01-30T12:46:39.515Z,7.21
2023-01-30T12:49:27.245Z,7.27
2023-01-30T12:52:12.335Z,7.31
2023-01-30T12:54:51.300Z,7.10
2023-01-30T12:57:27.119Z,7.14
2023-01-30T13:00:06.171Z,7.14
2023-01-30T13:02:58.091Z,7.03
2023-01-30T13:05:39.126Z,7.12
2023-01-30T13:08:20.944Z,7.26
2023-01-30T13:10:58.939Z,7.29
2023-01-30T13:13:32.010Z,7.34
2023-01-30T13:16:06.179Z,7.21
2023-01-30T13:18:40.452Z,7.39
2023-01-30T13:21:10.539Z,7.38
2023-01-30T13:23:47.597Z,7.44
2023-01-30T13:26:18.902Z,7.37
2023-01-30T13:28:48.384Z,7.42
2023-01-30T13:31:17.942Z,7.53
2023-01-30T13:33:47.773Z,7.45
2023-01-30T13:36:17.706Z,7.55
2023-01-30T13:38:59.534Z,7.72
2023-01-30T13:41:31.679Z,7.67
2023-01-30T13:43:59.059Z,7.56
2023-01-30T13:46:28.916Z,7.69
2023-01-30T13:49:07.663Z,7.62
2023-01-30T13:51:46.848Z,7.49
2023-01-30T13:54:37.749Z,7.59
2023-01-30T13:57:16.868Z,7.61
2023-01-30T13:59:59.871Z,7.54
2023-01-30T14:02:26.843Z,7.39
2023-01-30T14:04:54.357Z,7.57
2023-01-30T14:07:25.043Z,7.46
2023-01-30T14:10:04.262Z,7.38
2023-01-30T14:12:36.154Z,7.47
2023-01-30T14:15:04.767Z,7.56
2023-01-30T14:17:31.540Z,7.54
2023-01-30T14:20:01.265Z,7.53
2023-01-30T14:22:39.554Z,7.44
2023-01-30T14:25:43.477Z,7.60
2023-01-30T14:28:49.676Z,7.59
2023-01-30T14:31:49.765Z,7.54
2023-01-30T14:34:49.282Z,7.47
2023-01-30T14:37:30.348Z,7.53
2023-01-30T14:39:57.910Z,7.64
2023-01-30T14:42:25.917Z,7.60
2023-01-30T14:45:00.944Z,7.55
2023-01-30T14:47:35.171Z,7.58
2023-01-30T14:50:20.718Z,7.50
2023-01-30T14:52:48.247Z,7.53
2023-01-30T14:55:21.154Z,7.51
2023-01-30T14:57:54.012Z,7.49
2023-01-30T15:00:25.753Z,7.49
2023-01-30T15:02:56.498Z,7.47
2023-01-30T15:05:30.899Z,7.65
2023-01-30T15:08:05.393Z,7.67
2023-01-30T15:10:52.234Z,7.62
2023-01-30T15:13:33.465Z,7.62
2023-01-30T15:16:11.205Z,7.55
2023-01-30T15:18:54.249Z,7.57
2023-01-30T15:21:38.323Z,7.48
2023-01-30T15:24:20.647Z,7.25
2023-01-30T15:26:58.704Z,7.48
2023-01-30T15:29:37.699Z,7.38
2023-01-30T15:32:16.629Z,7.39
2023-01-30T15:34:49.710Z,7.42
2023-01-30T15:37:34.684Z,7.31
2023-01-30T15:40:18.601Z,7.24
2023-01-30T15:42:47.485Z,7.32
2023-01-30T15:45:23.364Z,7.10
2023-01-30T15:48:07.156Z,7.16
2023-01-30T15:50:33.877Z,7.37
2023-01-30T15:53:02.304Z,7.28
2023-01-30T15:55:31.118Z,7.01
2023-01-30T15:58:00.980Z,7.10
2023-01-30T16:00:30.524Z,7.22
2023-01-30T16:02:58.609Z,7.13
2023-01-30T16:05:26.487Z,6.51
2023-01-30T16:07:54.626Z,7.14
2023-01-30T16:10:24.302Z,7.05
2023-01-30T16:12:52.598Z,6.83
2023-01-30T16:15:28.281Z,7.06
2023-01-30T16:18:00.617Z,6.99
2023-01-30T16:20:27.468Z,6.86
2023-01-30T16:22:54.602Z,6.94
2023-01-30T16:25:25.669Z,7.00
2023-01-30T16:27:52.814Z,6.96
2023-01-30T16:30:22.861Z,6.90
2023-01-30T16:32:51.238Z,6.94
2023-01-30T16:35:28.352Z,6.94
2023-01-30T16:37:56.651Z,6.63
2023-01-30T16:40:25.966Z,6.92
2023-01-30T16:42:57.628Z,6.73
2023-01-30T16:46:04.695Z,6.82
2023-01-30T16:48:34.842Z,6.48
2023-01-30T16:51:25.232Z,6.82
2023-01-30T16:53:58.355Z,6.79
2023-01-30T16:56:27.090Z,6.77
2023-01-30T16:58:57.222Z,6.82
2023-01-30T17:01:35.900Z,6.66
2023-01-30T17:04:05.190Z,6.41
2023-01-30T17:06:36.995Z,6.72
2023-01-30T17:09:03.677Z,6.69
2023-01-30T17:11:34.863Z,6.67
2023-01-30T17:14:18.016Z,6.63
2023-01-30T17:16:44.943Z,6.67
2023-01-30T17:19:12.277Z,6.69
2023-01-30T17:21:44.501Z,6.49
2023-01-30T17:24:15.664Z,6.65
2023-01-30T17:26:44.804Z,6.59
2023-01-30T17:29:23.307Z,6.63
2023-01-30T17:31:56.815Z,6.60
2023-01-30T17:34:23.835Z,6.53
2023-01-30T17:36:51.722Z,6.59
2023-01-30T17:39:20.964Z,6.50
2023-01-30T17:41:49.308Z,6.59
2023-01-30T17:44:15.856Z,6.65
2023-01-30T17:46:44.418Z,6.60
2023-01-30T17:49:14.968Z,6.59
2023-01-30T17:51:42.067Z,6.57
2023-01-30T17:54:08.952Z,6.58
2023-01-30T17:56:38.446Z,6.59
2023-01-30T17:59:09.907Z,6.62
2023-01-30T18:01:36.554Z,6.61
2023-01-30T18:04:03.159Z,6.57
2023-01-30T18:06:30.596Z,6.60
2023-01-30T18:08:57.405Z,6.37
2023-01-30T18:11:24.207Z,6.53
2023-01-30T18:13:50.876Z,6.46
2023-01-30T18:16:22.445Z,6.55
2023-01-30T18:18:49.407Z,6.47
2023-01-30T18:21:16.539Z,6.48
2023-01-30T18:23:43.369Z,6.56
2023-01-30T18:26:12.209Z,6.58
2023-01-30T18:28:39.567Z,6.54
2023-01-30T18:31:06.281Z,6.56
2023-01-30T18:33:34.233Z,6.53
2023-01-30T18:36:04.665Z,6.50
2023-01-30T18:38:31.252Z,6.53
2023-01-30T18:40:57.987Z,6.45
2023-01-30T18:43:24.774Z,6.34
2023-01-30T18:46:01.961Z,6.52
2023-01-30T18:48:30.124Z,6.52
2023-01-30T18:51:05.279Z,6.46
2023-01-30T18:53:32.266Z,6.44
2023-01-30T18:55:58.842Z,6.50
2023-01-30T18:58:25.410Z,6.40
2023-01-30T19:00:52.146Z,6.34
2023-01-30T19:03:18.921Z,6.34
2023-01-30T19:05:45.461Z,6.34
2023-01-30T19:08:13.433Z,6.24
2023-01-30T19:10:39.916Z,6.37
2023-01-30T19:13:06.574Z,6.43
2023-01-30T19:15:35.005Z,6.38
2023-01-30T19:18:01.588Z,6.35
2023-01-30T19:20:28.663Z,6.34
2023-01-30T19:22:55.482Z,6.32
2023-01-30T19:25:23.745Z,6.27
2023-01-30T19:27:50.304Z,6.35
2023-01-30T19:30:17.740Z,6.30
2023-01-30T19:32:44.582Z,6.31
2023-01-30T19:35:11.937Z,6.19
2023-01-30T19:37:38.498Z,6.23
2023-01-30T19:40:07.181Z,6.25
2023-01-30T19:42:35.176Z,6.25
2023-01-30T19:45:01.812Z,6.23
2023-01-30T19:47:28.635Z,6.22
2023-01-30T19:49:55.126Z,6.25
2023-01-30T19:52:21.774Z,6.11
2023-01-30T19:54:48.276Z,6.14
2023-01-30T19:57:14.865Z,6.18
2023-01-30T19:59:42.751Z,6.04
2023-01-30T20:02:09.773Z,6.04
2023-01-30T20:04:36.302Z,6.05
2023-01-30T20:07:02.910Z,6.11
2023-01-30T20:09:29.808Z,6.08
2023-01-30T20:11:56.457Z,6.08
2023-01-30T20:14:23.378Z,6.05
2023-01-30T20:16:51.322Z,5.97
2023-01-30T20:19:17.834Z,5.98
2023-01-30T20:21:44.795Z,5.86
2023-01-30T20:24:12.230Z,5.86
2023-01-30T20:26:39.604Z,5.87
2023-01-30T20:29:07.725Z,5.56
2023-01-30T20:31:34.542Z,5.89
2023-01-30T20:34:04.044Z,5.79
2023-01-30T20:36:30.900Z,5.73
2023-01-30T20:39:00.095Z,5.65
2023-01-30T20:41:26.650Z,5.68
2023-01-30T20:43:54.882Z,5.73
2023-01-30T20:46:23.308Z,5.63
2023-01-30T20:48:52.828Z,5.71
2023-01-30T20:51:24.285Z,5.62
2023-01-30T20:53:53.231Z,5.57
2023-01-30T20:56:21.613Z,5.38
2023-01-30T20:58:48.737Z,5.45
2023-01-30T21:01:18.370Z,5.59
2023-01-30T21:03:46.499Z,5.42
2023-01-30T21:06:13.130Z,5.56
2023-01-30T21:08:41.310Z,5.50
2023-01-30T21:11:09.916Z,5.58
2023-01-30T21:13:37.289Z,5.43
2023-01-30T21:16:06.315Z,5.68
2023-01-30T21:18:35.026Z,5.67
2023-01-30T21:21:02.356Z,5.63
2023-01-30T21:23:29.866Z,5.65
2023-01-30T21:26:04.197Z,5.68
2023-01-30T21:28:30.856Z,5.58
2023-01-30T21:31:03.720Z,5.68
2023-01-30T21:33:30.444Z,5.69
2023-01-30T21:35:58.584Z,5.71
2023-01-30T21:38:25.417Z,5.72
2023-01-30T21:40:52.352Z,5.72
2023-01-30T21:43:20.346Z,5.74
2023-01-30T21:45:47.034Z,5.78
2023-01-30T21:48:13.638Z,5.80
2023-01-30T21:50:40.371Z,5.78
2023-01-30T21:53:06.970Z,5.76
2023-01-30T21:55:33.512Z,5.67
2023-01-30T21:58:00.113Z,5.70
2023-01-30T22:00:27.999Z,5.68
2023-01-30T22:02:54.901Z,5.56
2023-01-30T22:05:21.812Z,5.59
2023-01-30T22:07:48.948Z,5.24
2023-01-30T22:10:16.119Z,5.57
2023-01-30T22:12:42.727Z,5.54
2023-01-30T22:15:10.228Z,5.49
2023-01-30T22:17:38.655Z,5.44
2023-01-30T22:20:05.836Z,5.42
2023-01-30T22:22:32.510Z,5.39
2023-01-30T22:24:59.028Z,5.35
2023-01-30T22:27:25.671Z,5.29
2023-01-30T22:29:52.293Z,5.29
2023-01-30T22:32:18.867Z,5.29
2023-01-30T22:34:46.796Z,5.29
2023-01-30T22:37:13.700Z,5.33
2023-01-30T22:39:40.312Z,5.24
2023-01-30T22:42:07.293Z,5.18
2023-01-30T22:44:34.063Z,5.24
2023-01-30T22:47:00.789Z,5.20
2023-01-30T22:49:27.309Z,5.21
2023-01-30T22:51:55.272Z,5.13
2023-01-30T22:54:21.793Z,5.22
2023-01-30T22:56:51.766Z,5.14
2023-01-30T22:59:18.468Z,5.25
2023-01-30T23:01:46.983Z,5.19
2023-01-30T23:04:15.121Z,4.98
2023-01-30T23:06:42.131Z,5.23
2023-01-30T23:09:13.266Z,5.24
2023-01-30T23:11:41.943Z,5.22
2023-01-30T23:14:11.725Z,5.21
2023-01-30T23:16:40.634Z,5.13
2023-01-30T23:19:09.401Z,4.82
2023-01-30T23:21:38.074Z,5.11
2023-01-30T23:24:07.266Z,5.14
2023-01-30T23:26:40.278Z,5.02
2023-01-30T23:29:09.065Z,5.05
2023-01-30T23:31:36.741Z,5.11
2023-01-30T23:34:05.408Z,5.14
2023-01-30T23:36:32.664Z,5.15
2023-01-30T23:39:00.768Z,5.05
2023-01-30T23:41:29.193Z,5.09
2023-01-30T23:43:58.284Z,5.06
2023-01-30T23:46:26.992Z,5.10
2023-01-30T23:48:55.148Z,5.08
2023-01-30T23:51:23.133Z,5.11
2023-01-30T23:53:50.744Z,5.07
2023-01-30T23:56:18.460Z,5.07
2023-01-30T23:58:45.667Z,5.07
